Christian Reinauer — WDA6472 — position and weather

sailwx.info

Track history (hours):
 
Tides and Currents Weather Stations Pressure Air Temp Water Temp Dewpoint Dewpoint Depression Visibility Wind Speed Wind Dir Waves Ship Positions

Christian Reinauer

Owner: REINAUER TRANSPORTATION CO LLC, STATEN ISLAND, NY. More information available from US FCC via Universal Licensing System and Coast Guard Vessel Documentation Center.

Last reported at 2015-Jul-26 19:31 UTC. Time now 2015-Jul-28 15:20 UTC.
Position N 29°56' W 090°04'.

Length 170 m; draft 6.4 m.

Type: Tanker. MMSI: 366832740.

Date/timePositionNaut miles runAvg speedWind from/ knotsBaromVisibWave heightAir tempDewpointWater temp
2015-Jul-26 19:31N 29°56' W 090°04'  
2015-Jul-24 14:31N 29°57' W 090°01'0 0.0
2015-Jul-24 13:33N 29°57' W 090°01'2 2.1
2015-Jul-24 12:32N 29°56' W 089°59'413 8.7
2015-Jul-22 13:04N 27°42' W 082°33'510.3
2015-Jul-22 12:33N 27°47' W 082°32'5 4.7
2015-Jul-22 11:33N 27°52' W 082°33'0 0.0
2015-Jul-22 10:31N 27°52' W 082°33'0 0.0
2015-Jul-22 09:31N 27°52' W 082°33'0 0.0
2015-Jul-22 08:30N 27°52' W 082°33'0 0.0
2015-Jul-22 07:30N 27°52' W 082°33'0 0.0
2015-Jul-22 06:33N 27°52' W 082°33'0 0.0
2015-Jul-22 05:33N 27°52' W 082°33'0 0.0
2015-Jul-22 04:33N 27°52' W 082°33'0 0.0
2015-Jul-22 03:33N 27°52' W 082°33'0 0.0
2015-Jul-22 02:33N 27°52' W 082°33'0 0.0
2015-Jul-22 01:33N 27°52' W 082°33'0 0.0
2015-Jul-22 00:33N 27°52' W 082°33'0 0.0
2015-Jul-21 23:33N 27°52' W 082°33'1 1.4
2015-Jul-21 22:33N 27°51' W 082°34'5 5.4
2015-Jul-21 21:33N 27°46' W 082°31'192 4.4
2015-Jul-20 02:21N 25°27' W 080°02'7 8.9
2015-Jul-20 01:33N 25°35' W 080°02'9 8.7
2015-Jul-20 00:33N 25°43' W 080°02'8 8.3
2015-Jul-19 23:33N 25°52' W 080°02'8 8.4
2015-Jul-19 22:33N 25°60' W 080°03'7 6.7
2015-Jul-19 21:33N 26°05' W 080°07'0 0.1
2015-Jul-19 20:33N 26°05' W 080°07'0 0.0
2015-Jul-19 19:32N 26°05' W 080°07'0 0.0
2015-Jul-19 18:32N 26°05' W 080°07'0 0.0
2015-Jul-19 17:32N 26°05' W 080°07'0 0.0
2015-Jul-19 16:32N 26°05' W 080°07'0 0.0
2015-Jul-19 15:32N 26°05' W 080°07'0 0.0
2015-Jul-19 14:32N 26°05' W 080°07'0 0.0
2015-Jul-19 13:32N 26°05' W 080°07'0 0.0
2015-Jul-19 12:32N 26°05' W 080°07'0 0.0
2015-Jul-19 11:32N 26°05' W 080°07'0 0.0
2015-Jul-19 10:32N 26°05' W 080°07'0 0.0
2015-Jul-19 09:23N 26°05' W 080°07'0 0.0
2015-Jul-19 08:23N 26°05' W 080°07'0 0.0
2015-Jul-19 07:26N 26°05' W 080°07'0 0.0
2015-Jul-19 06:26N 26°05' W 080°07'0 0.0
2015-Jul-19 05:26N 26°05' W 080°07'0 0.0
2015-Jul-19 04:26N 26°05' W 080°07'0 0.0
2015-Jul-19 00:29N 26°05' W 080°07'0 0.0
2015-Jul-18 23:29N 26°05' W 080°07'0 0.0
2015-Jul-18 22:29N 26°05' W 080°07'0 0.0
2015-Jul-18 21:32N 26°05' W 080°07'0 0.0
2015-Jul-18 20:32N 26°05' W 080°07'0 0.0
2015-Jul-18 19:32N 26°05' W 080°07'0 0.0
2015-Jul-18 18:32N 26°05' W 080°07'0 0.0
2015-Jul-18 17:32N 26°05' W 080°07'0 0.0
2015-Jul-18 16:32N 26°05' W 080°07'0 0.0
2015-Jul-18 15:33N 26°05' W 080°07'3 3.3
2015-Jul-18 14:33N 26°06' W 080°04'2 1.6
2015-Jul-18 13:33N 26°04' W 080°03'5 4.8
2015-Jul-18 12:33N 25°60' W 080°02'10 9.7
2015-Jul-18 11:33N 25°50' W 080°01'1110.6
2015-Jul-18 10:33N 25°39' W 080°01'1514.4
2015-Jul-18 09:32N 25°25' W 080°02'  
Track history (hours):
 
Tides and Currents Weather Stations Pressure Air Temp Water Temp Dewpoint Dewpoint Depression Visibility Wind Speed Wind Dir Waves Ship Positions

Christian Reinauer

Owner: REINAUER TRANSPORTATION CO LLC, STATEN ISLAND, NY. More information available from US FCC via Universal Licensing System and Coast Guard Vessel Documentation Center.

Last reported at 2015-Jul-26 19:31 UTC. Time now 2015-Jul-28 15:20 UTC.
Position N 29°56' W 090°04'.

Length 170 m; draft 6.4 m.

Type: Tanker. MMSI: 366832740.

Date/timePositionNaut miles runAvg speedWind from/ knotsBaromVisibWave heightAir tempDewpointWater temp
2015-Jul-26 19:31N 29°56' W 090°04'  
2015-Jul-24 14:31N 29°57' W 090°01'0 0.0
2015-Jul-24 13:33N 29°57' W 090°01'2 2.1
2015-Jul-24 12:32N 29°56' W 089°59'413 8.7
2015-Jul-22 13:04N 27°42' W 082°33'510.3
2015-Jul-22 12:33N 27°47' W 082°32'5 4.7
2015-Jul-22 11:33N 27°52' W 082°33'0 0.0
2015-Jul-22 10:31N 27°52' W 082°33'0 0.0
2015-Jul-22 09:31N 27°52' W 082°33'0 0.0
2015-Jul-22 08:30N 27°52' W 082°33'0 0.0
2015-Jul-22 07:30N 27°52' W 082°33'0 0.0
2015-Jul-22 06:33N 27°52' W 082°33'0 0.0
2015-Jul-22 05:33N 27°52' W 082°33'0 0.0
2015-Jul-22 04:33N 27°52' W 082°33'0 0.0
2015-Jul-22 03:33N 27°52' W 082°33'0 0.0
2015-Jul-22 02:33N 27°52' W 082°33'0 0.0
2015-Jul-22 01:33N 27°52' W 082°33'0 0.0
2015-Jul-22 00:33N 27°52' W 082°33'0 0.0
2015-Jul-21 23:33N 27°52' W 082°33'1 1.4
2015-Jul-21 22:33N 27°51' W 082°34'5 5.4
2015-Jul-21 21:33N 27°46' W 082°31'192 4.4
2015-Jul-20 02:21N 25°27' W 080°02'7 8.9
2015-Jul-20 01:33N 25°35' W 080°02'9 8.7
2015-Jul-20 00:33N 25°43' W 080°02'8 8.3
2015-Jul-19 23:33N 25°52' W 080°02'8 8.4
2015-Jul-19 22:33N 25°60' W 080°03'7 6.7
2015-Jul-19 21:33N 26°05' W 080°07'0 0.1
2015-Jul-19 20:33N 26°05' W 080°07'0 0.0
2015-Jul-19 19:32N 26°05' W 080°07'0 0.0
2015-Jul-19 18:32N 26°05' W 080°07'0 0.0
2015-Jul-19 17:32N 26°05' W 080°07'0 0.0
2015-Jul-19 16:32N 26°05' W 080°07'0 0.0
2015-Jul-19 15:32N 26°05' W 080°07'0 0.0
2015-Jul-19 14:32N 26°05' W 080°07'0 0.0
2015-Jul-19 13:32N 26°05' W 080°07'0 0.0
2015-Jul-19 12:32N 26°05' W 080°07'0 0.0
2015-Jul-19 11:32N 26°05' W 080°07'0 0.0
2015-Jul-19 10:32N 26°05' W 080°07'0 0.0
2015-Jul-19 09:23N 26°05' W 080°07'0 0.0
2015-Jul-19 08:23N 26°05' W 080°07'0 0.0
2015-Jul-19 07:26N 26°05' W 080°07'0 0.0
2015-Jul-19 06:26N 26°05' W 080°07'0 0.0
2015-Jul-19 05:26N 26°05' W 080°07'0 0.0
2015-Jul-19 04:26N 26°05' W 080°07'0 0.0
2015-Jul-19 00:29N 26°05' W 080°07'0 0.0
2015-Jul-18 23:29N 26°05' W 080°07'0 0.0
2015-Jul-18 22:29N 26°05' W 080°07'0 0.0
2015-Jul-18 21:32N 26°05' W 080°07'0 0.0
2015-Jul-18 20:32N 26°05' W 080°07'0 0.0
2015-Jul-18 19:32N 26°05' W 080°07'0 0.0
2015-Jul-18 18:32N 26°05' W 080°07'0 0.0
2015-Jul-18 17:32N 26°05' W 080°07'0 0.0
2015-Jul-18 16:32N 26°05' W 080°07'0 0.0
2015-Jul-18 15:33N 26°05' W 080°07'3 3.3
2015-Jul-18 14:33N 26°06' W 080°04'2 1.6
2015-Jul-18 13:33N 26°04' W 080°03'5 4.8
2015-Jul-18 12:33N 25°60' W 080°02'10 9.7
2015-Jul-18 11:33N 25°50' W 080°01'1110.6
2015-Jul-18 10:33N 25°39' W 080°01'1514.4
2015-Jul-18 09:32N 25°25' W 080°02'  

Dump ship's entire track history